createdAt,value
2023-04-21T00:00:22.478Z,13.68
2023-04-21T00:02:50.812Z,13.68
2023-04-21T00:05:19.145Z,13.71
2023-04-21T00:07:47.174Z,13.61
2023-04-21T00:10:15.248Z,13.67
2023-04-21T00:12:42.945Z,13.67
2023-04-21T00:15:12.898Z,13.68
2023-04-21T00:17:40.882Z,13.67
2023-04-21T00:20:11.905Z,13.64
2023-04-21T00:22:39.983Z,13.59
2023-04-21T00:25:27.192Z,13.67
2023-04-21T00:27:55.233Z,13.71
2023-04-21T00:30:22.002Z,13.72
2023-04-21T00:32:50.052Z,13.75
2023-04-21T00:35:18.000Z,13.79
2023-04-21T00:37:45.903Z,13.82
2023-04-21T00:40:13.940Z,13.89
2023-04-21T00:42:41.566Z,13.96
2023-04-21T00:45:10.680Z,14.01
2023-04-21T00:47:38.774Z,13.98
2023-04-21T00:50:08.860Z,14.01
2023-04-21T00:52:36.116Z,14.08
2023-04-21T00:55:04.596Z,14.06
2023-04-21T00:57:32.726Z,14.08
2023-04-21T01:00:00.579Z,14.14
2023-04-21T01:02:28.737Z,14.18
2023-04-21T01:04:56.662Z,14.23
2023-04-21T01:07:25.721Z,14.21
2023-04-21T01:09:54.237Z,14.26
2023-04-21T01:12:22.521Z,14.28
2023-04-21T01:14:50.953Z,14.31
2023-04-21T01:17:19.076Z,14.30
2023-04-21T01:19:46.137Z,14.28
2023-04-21T01:22:15.349Z,14.28
2023-04-21T01:24:44.673Z,14.26
2023-04-21T01:27:13.687Z,14.23
2023-04-21T01:29:42.612Z,14.28
2023-04-21T01:32:34.247Z,14.26
2023-04-21T01:35:01.843Z,14.29
2023-04-21T01:37:31.390Z,14.30
2023-04-21T01:40:00.830Z,14.29
2023-04-21T01:42:29.680Z,14.32
2023-04-21T01:44:57.198Z,14.30
2023-04-21T01:47:25.473Z,14.29
2023-04-21T01:49:53.118Z,14.23
2023-04-21T01:52:21.137Z,14.20
2023-04-21T01:54:48.572Z,14.14
2023-04-21T01:57:16.746Z,14.14
2023-04-21T01:59:44.987Z,14.13
2023-04-21T02:02:12.711Z,14.11
2023-04-21T02:04:40.773Z,14.09
2023-04-21T02:07:08.775Z,14.10
2023-04-21T02:09:36.630Z,14.15
2023-04-21T02:12:05.134Z,14.11
2023-04-21T02:14:32.278Z,14.19
2023-04-21T02:16:59.927Z,14.16
2023-04-21T02:19:27.596Z,14.15
2023-04-21T02:21:55.910Z,14.15
2023-04-21T02:24:23.633Z,14.19
2023-04-21T02:26:51.550Z,14.17
2023-04-21T02:29:20.069Z,14.21
2023-04-21T02:32:00.836Z,14.24
2023-04-21T02:34:31.226Z,14.25
2023-04-21T02:36:59.916Z,14.24
2023-04-21T02:39:27.622Z,14.20
2023-04-21T02:41:55.293Z,14.24
2023-04-21T02:44:23.401Z,14.24
2023-04-21T02:46:51.501Z,14.28
2023-04-21T02:49:19.814Z,14.31
2023-04-21T02:51:48.072Z,14.35
2023-04-21T02:54:15.824Z,14.36
2023-04-21T02:56:43.917Z,14.39
2023-04-21T02:59:11.885Z,14.45
2023-04-21T03:01:40.338Z,14.45
2023-04-21T03:04:14.319Z,14.48
2023-04-21T03:06:42.047Z,14.49
2023-04-21T03:09:10.175Z,14.52
2023-04-21T03:11:38.484Z,14.52
2023-04-21T03:14:06.052Z,14.52
2023-04-21T03:16:34.212Z,14.56
2023-04-21T03:19:02.257Z,14.58
2023-04-21T03:21:30.381Z,14.55
2023-04-21T03:23:57.948Z,14.55
2023-04-21T03:26:25.880Z,14.56
2023-04-21T03:28:53.828Z,14.54
2023-04-21T03:31:41.019Z,14.52
2023-04-21T03:34:09.152Z,14.59
2023-04-21T03:36:37.124Z,14.54
2023-04-21T03:39:16.855Z,14.54
2023-04-21T03:41:46.853Z,14.42
2023-04-21T03:44:14.863Z,14.41
2023-04-21T03:46:43.324Z,14.39
2023-04-21T03:49:11.234Z,14.35
2023-04-21T03:51:39.336Z,14.34
2023-04-21T03:54:07.345Z,14.29
2023-04-21T03:56:35.556Z,14.28
2023-04-21T03:59:03.762Z,14.18
2023-04-21T04:01:31.299Z,14.16
2023-04-21T04:04:02.894Z,14.08
2023-04-21T04:06:31.365Z,14.04
2023-04-21T04:08:59.134Z,14.01
2023-04-21T04:11:27.153Z,13.93
2023-04-21T04:13:55.101Z,13.87
2023-04-21T04:16:23.389Z,13.82
2023-04-21T04:18:51.908Z,13.74
2023-04-21T04:21:19.813Z,13.70
2023-04-21T04:23:47.687Z,13.63
2023-04-21T04:26:15.329Z,13.58
2023-04-21T04:28:42.962Z,13.58
2023-04-21T04:31:13.854Z,13.59
2023-04-21T04:33:45.242Z,13.56
2023-04-21T04:36:13.112Z,13.52
2023-04-21T04:38:40.394Z,13.50
2023-04-21T04:41:09.623Z,13.52
2023-04-21T04:43:38.733Z,13.54
2023-04-21T04:46:06.540Z,13.52
2023-04-21T04:48:34.274Z,13.55
2023-04-21T04:51:02.495Z,13.70
2023-04-21T04:53:30.333Z,13.73
2023-04-21T04:55:59.408Z,13.75
2023-04-21T04:58:27.224Z,13.79
2023-04-21T05:00:55.255Z,13.90
2023-04-21T05:03:23.578Z,13.94
2023-04-21T05:05:51.333Z,13.87
2023-04-21T05:08:19.315Z,13.97
2023-04-21T05:10:47.366Z,14.01
2023-04-21T05:13:17.648Z,14.03
2023-04-21T05:15:46.797Z,14.08
2023-04-21T05:18:14.476Z,14.15
2023-04-21T05:20:42.830Z,14.14
2023-04-21T05:23:10.975Z,14.21
2023-04-21T05:25:39.084Z,14.24
2023-04-21T05:28:07.127Z,14.28
2023-04-21T05:30:35.107Z,14.33
2023-04-21T05:33:02.781Z,14.43
2023-04-21T05:35:35.979Z,14.48
2023-04-21T05:38:05.409Z,14.55
2023-04-21T05:40:33.068Z,14.60
2023-04-21T05:43:00.947Z,14.69
2023-04-21T05:45:28.844Z,14.78
2023-04-21T05:47:56.490Z,14.87
2023-04-21T05:50:26.473Z,14.95
2023-04-21T05:52:54.543Z,15.08
2023-04-21T05:55:22.784Z,15.18
2023-04-21T05:57:50.390Z,15.16
2023-04-21T06:00:19.947Z,15.29
2023-04-21T06:02:48.178Z,15.31
2023-04-21T06:05:15.904Z,15.35
2023-04-21T06:07:44.233Z,15.30
2023-04-21T06:10:13.908Z,15.35
2023-04-21T06:12:41.936Z,15.38
2023-04-21T06:15:11.412Z,15.36
2023-04-21T06:17:39.365Z,15.44
2023-04-21T06:20:09.894Z,15.53
2023-04-21T06:22:37.628Z,15.75
2023-04-21T06:25:08.032Z,15.96
2023-04-21T06:27:36.944Z,16.07
2023-04-21T06:30:05.767Z,16.15
2023-04-21T06:32:33.874Z,16.37
2023-04-21T06:35:01.578Z,16.55
2023-04-21T06:37:29.705Z,16.69
2023-04-21T06:39:57.646Z,16.78
2023-04-21T06:42:25.368Z,16.85
2023-04-21T06:44:53.068Z,16.89
2023-04-21T06:47:20.823Z,16.87
2023-04-21T06:49:49.199Z,16.75
2023-04-21T06:52:18.287Z,16.68
2023-04-21T06:54:48.185Z,16.59
2023-04-21T06:57:17.571Z,16.52
2023-04-21T06:59:45.777Z,16.50
2023-04-21T07:02:13.803Z,16.51
2023-04-21T07:04:42.066Z,16.59
2023-04-21T07:07:09.902Z,16.65
2023-04-21T07:09:37.588Z,16.75
2023-04-21T07:12:05.674Z,16.89
2023-04-21T07:14:33.653Z,17.17
2023-04-21T07:17:01.254Z,17.42
2023-04-21T07:19:28.843Z,17.58
2023-04-21T07:21:58.770Z,17.81
2023-04-21T07:24:26.738Z,17.91
2023-04-21T07:26:55.057Z,17.98
2023-04-21T07:29:22.970Z,18.07
2023-04-21T07:31:52.214Z,18.06
2023-04-21T07:34:20.049Z,18.06
2023-04-21T07:36:48.120Z,18.05
2023-04-21T07:39:16.125Z,18.05
2023-04-21T07:41:43.926Z,18.12
2023-04-21T07:44:11.462Z,18.19
2023-04-21T07:46:39.480Z,18.21
2023-04-21T07:49:07.585Z,18.13
2023-04-21T07:51:35.839Z,17.97
2023-04-21T07:54:03.372Z,17.85
2023-04-21T07:56:31.958Z,17.75
2023-04-21T07:58:59.743Z,17.78
2023-04-21T08:01:32.127Z,17.88
2023-04-21T08:04:00.449Z,17.97
2023-04-21T08:06:28.146Z,18.06
2023-04-21T08:08:56.094Z,18.30
2023-04-21T08:11:24.436Z,18.58
2023-04-21T08:13:52.347Z,18.92
2023-04-21T08:16:20.914Z,19.23
2023-04-21T08:18:49.061Z,19.52
2023-04-21T08:21:16.761Z,19.78
2023-04-21T08:23:45.031Z,20.01
2023-04-21T08:26:16.156Z,20.11
2023-04-21T08:28:44.057Z,20.20
2023-04-21T08:31:12.006Z,20.31
2023-04-21T08:33:49.851Z,20.44
2023-04-21T08:36:29.976Z,20.61
2023-04-21T08:38:58.962Z,20.70
2023-04-21T08:41:46.202Z,20.75
2023-04-21T08:44:14.154Z,20.81
2023-04-21T08:46:41.169Z,20.83
2023-04-21T08:49:10.536Z,20.61
2023-04-21T08:51:38.436Z,20.71
2023-04-21T08:54:06.857Z,20.82
2023-04-21T08:56:34.151Z,20.91
2023-04-21T08:59:02.005Z,20.98
2023-04-21T09:01:29.886Z,20.94
2023-04-21T09:04:17.272Z,21.12
2023-04-21T09:06:46.308Z,21.35
2023-04-21T09:09:14.435Z,21.51
2023-04-21T09:11:42.486Z,21.67
2023-04-21T09:14:10.030Z,21.89
2023-04-21T09:16:37.769Z,21.87
2023-04-21T09:19:05.026Z,22.00
2023-04-21T09:21:32.947Z,22.17
2023-04-21T09:24:05.885Z,22.35
2023-04-21T09:26:35.197Z,22.34
2023-04-21T09:29:03.698Z,22.27
2023-04-21T09:31:30.594Z,22.10
2023-04-21T09:34:00.844Z,21.88
2023-04-21T09:36:30.362Z,21.69
2023-04-21T09:41:34.099Z,21.62
2023-04-21T09:44:04.093Z,21.58
2023-04-21T09:46:34.488Z,21.50
2023-04-21T09:49:02.444Z,21.42
2023-04-21T09:51:52.696Z,21.26
2023-04-21T09:56:53.751Z,21.41
2023-04-21T09:59:25.599Z,21.57
2023-04-21T10:01:58.445Z,21.70
2023-04-21T10:04:26.452Z,21.70
2023-04-21T10:06:54.385Z,21.60
2023-04-21T10:09:22.607Z,21.51
2023-04-21T10:11:50.934Z,21.44
2023-04-21T10:14:19.152Z,21.29
2023-04-21T10:16:57.336Z,21.29
2023-04-21T10:19:25.627Z,21.37
2023-04-21T10:21:55.838Z,21.53
2023-04-21T10:24:24.126Z,21.62
2023-04-21T10:26:54.630Z,21.68
2023-04-21T10:29:47.833Z,21.66
2023-04-21T10:32:43.150Z,21.61
2023-04-21T10:35:23.420Z,21.67
2023-04-21T10:37:52.133Z,21.74
2023-04-21T10:40:43.133Z,21.65
2023-04-21T10:43:49.285Z,21.63
2023-04-21T10:46:41.678Z,21.62
2023-04-21T10:49:12.938Z,21.57
2023-04-21T10:52:04.361Z,21.76
2023-04-21T10:54:57.416Z,21.85
2023-04-21T10:57:31.761Z,21.90
2023-04-21T11:00:01.157Z,21.98
2023-04-21T11:02:29.001Z,21.99
2023-04-21T11:04:59.563Z,22.01
2023-04-21T11:07:26.990Z,22.02
2023-04-21T11:10:20.924Z,22.07
2023-04-21T11:12:48.944Z,22.17
2023-04-21T11:15:17.304Z,22.12
2023-04-21T11:17:45.534Z,22.18
2023-04-21T11:20:16.349Z,22.28
2023-04-21T11:22:44.395Z,22.40
2023-04-21T11:25:19.160Z,22.42
2023-04-21T11:28:18.470Z,22.50
2023-04-21T11:30:46.243Z,22.40
2023-04-21T11:33:17.531Z,22.42
2023-04-21T11:35:45.320Z,22.47
2023-04-21T11:38:14.825Z,22.76
2023-04-21T11:40:51.304Z,22.99
2023-04-21T11:43:18.594Z,23.48
2023-04-21T11:45:51.230Z,23.86
2023-04-21T11:48:19.708Z,23.87
2023-04-21T11:50:51.051Z,23.98
2023-04-21T11:53:19.537Z,24.07
2023-04-21T11:55:47.478Z,24.13
2023-04-21T11:58:17.900Z,24.64
2023-04-21T12:00:46.713Z,25.01
2023-04-21T12:03:14.734Z,25.50
2023-04-21T12:05:43.045Z,26.09
2023-04-21T12:08:16.787Z,26.42
2023-04-21T12:10:47.195Z,26.56
2023-04-21T12:13:19.822Z,26.64
2023-04-21T12:15:47.861Z,26.93
2023-04-21T12:18:15.942Z,27.55
2023-04-21T12:21:14.924Z,27.98
2023-04-21T12:23:42.702Z,28.20
2023-04-21T12:26:10.821Z,28.19
2023-04-21T12:28:39.351Z,27.97
2023-04-21T12:31:07.408Z,27.66
2023-04-21T12:33:35.472Z,28.28
2023-04-21T12:36:02.762Z,28.44
2023-04-21T12:38:33.987Z,27.93
2023-04-21T12:41:01.702Z,28.24
2023-04-21T12:43:30.215Z,28.40
2023-04-21T12:45:58.617Z,28.01
2023-04-21T12:48:26.994Z,27.24
2023-04-21T12:50:54.532Z,27.46
2023-04-21T12:53:22.949Z,28.24
2023-04-21T12:56:01.339Z,28.79
2023-04-21T12:58:33.175Z,29.59
2023-04-21T13:01:00.865Z,29.40
2023-04-21T13:03:28.474Z,28.83
2023-04-21T13:05:56.125Z,28.49
2023-04-21T13:08:24.594Z,28.70
2023-04-21T13:10:54.680Z,29.16
2023-04-21T13:13:24.254Z,29.50
2023-04-21T13:15:52.437Z,29.85
2023-04-21T13:18:20.259Z,30.34
2023-04-21T13:20:47.386Z,30.89
2023-04-21T13:23:15.070Z,31.70
2023-04-21T13:25:44.793Z,32.58
2023-04-21T13:28:13.900Z,32.82
2023-04-21T13:30:41.741Z,32.93
2023-04-21T13:33:09.006Z,32.79
2023-04-21T13:35:37.187Z,32.72
2023-04-21T13:38:05.652Z,33.20
2023-04-21T13:40:33.642Z,33.29
2023-04-21T13:43:01.491Z,33.51
2023-04-21T13:45:29.384Z,33.84
2023-04-21T13:47:58.681Z,33.89
2023-04-21T13:50:26.722Z,34.17
2023-04-21T13:52:54.793Z,33.92
2023-04-21T13:55:22.819Z,32.65
2023-04-21T13:57:50.641Z,31.41
2023-04-21T14:00:19.907Z,30.21
2023-04-21T14:02:47.937Z,28.75
2023-04-21T14:05:16.498Z,27.86
2023-04-21T14:07:45.012Z,27.31
2023-04-21T14:10:12.627Z,25.88
2023-04-21T14:12:40.111Z,25.36
2023-04-21T14:15:10.368Z,24.66
2023-04-21T14:17:38.479Z,24.23
2023-04-21T14:20:12.066Z,24.14
2023-04-21T14:22:40.231Z,24.32
2023-04-21T14:25:14.037Z,24.91
2023-04-21T14:27:41.545Z,25.09
2023-04-21T14:30:11.586Z,24.91
2023-04-21T14:32:45.345Z,24.78
2023-04-21T14:35:13.022Z,24.59
2023-04-21T14:37:41.491Z,24.51
2023-04-21T14:40:13.697Z,25.12
2023-04-21T14:42:41.988Z,26.48
2023-04-21T14:45:12.459Z,27.78
2023-04-21T14:47:40.354Z,28.89
2023-04-21T14:50:10.196Z,29.87
2023-04-21T14:52:38.678Z,30.34
2023-04-21T14:55:08.401Z,31.15
2023-04-21T14:57:36.093Z,31.92
2023-04-21T15:00:04.589Z,32.20
2023-04-21T15:02:32.457Z,32.42
2023-04-21T15:05:00.822Z,32.04
2023-04-21T15:07:28.658Z,31.59
2023-04-21T15:09:56.732Z,31.80
2023-04-21T15:12:24.357Z,31.32
2023-04-21T15:14:52.474Z,31.17
2023-04-21T15:17:20.734Z,31.28
2023-04-21T15:19:49.180Z,31.26
2023-04-21T15:22:16.370Z,31.64
2023-04-21T15:24:44.083Z,31.93
2023-04-21T15:27:11.781Z,31.66
2023-04-21T15:29:39.529Z,31.57
2023-04-21T15:32:07.530Z,31.68
2023-04-21T15:34:35.654Z,31.61
2023-04-21T15:37:03.466Z,31.00
2023-04-21T15:39:31.748Z,30.16
2023-04-21T15:41:59.401Z,29.31
2023-04-21T15:44:27.842Z,28.48
2023-04-21T15:46:55.896Z,27.80
2023-04-21T15:49:26.008Z,27.30
2023-04-21T15:51:54.489Z,26.96
2023-04-21T15:54:23.082Z,26.55
2023-04-21T15:56:50.893Z,26.45
2023-04-21T15:59:19.042Z,26.17
2023-04-21T16:01:46.977Z,26.03
2023-04-21T16:04:15.347Z,25.80
2023-04-21T16:06:43.566Z,25.67
2023-04-21T16:09:11.469Z,25.68
2023-04-21T16:11:39.161Z,25.79
2023-04-21T16:14:06.769Z,25.92
2023-04-21T16:16:36.671Z,25.92
2023-04-21T16:19:04.568Z,25.72
2023-04-21T16:21:32.491Z,25.59
2023-04-21T16:24:00.434Z,25.55
2023-04-21T16:26:28.250Z,25.25
2023-04-21T16:28:56.638Z,25.13
2023-04-21T16:31:24.409Z,25.06
2023-04-21T16:33:52.851Z,24.79
2023-04-21T16:36:21.448Z,24.55
2023-04-21T16:38:49.763Z,24.34
2023-04-21T16:41:20.312Z,24.10
2023-04-21T16:43:49.065Z,23.76
2023-04-21T16:46:16.788Z,23.62
2023-04-21T16:48:48.762Z,23.46
2023-04-21T16:51:16.486Z,23.41
2023-04-21T16:53:44.273Z,23.30
2023-04-21T16:56:11.909Z,23.16
2023-04-21T16:58:39.591Z,23.01
2023-04-21T17:01:07.791Z,22.83
2023-04-21T17:03:36.143Z,22.61
2023-04-21T17:06:05.154Z,22.47
2023-04-21T17:08:33.139Z,22.32
2023-04-21T17:11:00.964Z,22.21
2023-04-21T17:13:28.689Z,22.11
2023-04-21T17:15:56.955Z,22.02
2023-04-21T17:18:25.036Z,21.94
2023-04-21T17:20:52.955Z,21.81
2023-04-21T17:23:20.739Z,21.66
2023-04-21T17:25:48.840Z,21.51
2023-04-21T17:28:16.112Z,21.37
2023-04-21T17:30:43.633Z,21.24
2023-04-21T17:33:16.840Z,21.06
2023-04-21T17:35:59.813Z,20.85
2023-04-21T17:38:30.219Z,20.74
2023-04-21T17:40:58.319Z,20.54
2023-04-21T17:43:26.249Z,20.38
2023-04-21T17:45:54.171Z,20.27
2023-04-21T17:48:22.352Z,20.16
2023-04-21T17:50:50.270Z,20.09
2023-04-21T17:53:18.136Z,20.01
2023-04-21T17:55:45.960Z,19.94
2023-04-21T17:58:13.994Z,19.86
2023-04-21T18:00:41.809Z,19.72
2023-04-21T18:03:09.419Z,19.67
2023-04-21T18:05:37.511Z,19.61
2023-04-21T18:08:05.192Z,19.56
2023-04-21T18:10:32.930Z,19.47
2023-04-21T18:13:00.890Z,19.39
2023-04-21T18:15:28.539Z,19.17
2023-04-21T18:17:56.653Z,19.11
2023-04-21T18:20:24.715Z,19.10
2023-04-21T18:22:54.253Z,19.13
2023-04-21T18:25:40.712Z,19.15
2023-04-21T18:28:11.305Z,19.02
2023-04-21T18:30:39.261Z,18.96
2023-04-21T18:33:06.904Z,18.93
2023-04-21T18:35:34.301Z,18.87
2023-04-21T18:38:02.159Z,18.82
2023-04-21T18:40:30.105Z,18.76
2023-04-21T18:43:00.224Z,18.76
2023-04-21T18:45:28.744Z,18.78
2023-04-21T18:47:56.908Z,18.86
2023-04-21T18:50:25.307Z,18.87
2023-04-21T18:52:53.254Z,18.86
2023-04-21T18:55:21.022Z,18.81
2023-04-21T18:57:48.626Z,18.82
2023-04-21T19:00:17.556Z,18.82
2023-04-21T19:02:48.866Z,18.77
2023-04-21T19:05:17.852Z,18.73
2023-04-21T19:07:45.477Z,18.67
2023-04-21T19:10:16.094Z,18.53
2023-04-21T19:12:43.251Z,18.54
2023-04-21T19:15:12.424Z,18.51
2023-04-21T19:17:41.335Z,18.48
2023-04-21T19:20:12.192Z,18.44
2023-04-21T19:22:40.275Z,18.43
2023-04-21T19:25:10.199Z,18.35
2023-04-21T19:27:41.462Z,18.36
2023-04-21T19:30:11.572Z,18.39
2023-04-21T19:32:39.854Z,18.42
2023-04-21T19:35:12.577Z,18.38
2023-04-21T19:37:40.238Z,18.32
2023-04-21T19:40:10.611Z,18.25
2023-04-21T19:42:40.220Z,18.27
2023-04-21T19:45:12.095Z,18.30
2023-04-21T19:47:39.404Z,18.24
2023-04-21T19:50:10.977Z,18.14
2023-04-21T19:52:38.685Z,18.09
2023-04-21T19:55:07.878Z,18.01
2023-04-21T19:57:35.609Z,17.98
2023-04-21T20:00:03.631Z,17.94
2023-04-21T20:02:31.740Z,17.85
2023-04-21T20:05:00.113Z,17.74
2023-04-21T20:07:28.215Z,17.67
2023-04-21T20:09:55.961Z,17.63
2023-04-21T20:12:23.865Z,17.71
2023-04-21T20:14:54.277Z,17.69
2023-04-21T20:17:22.350Z,17.69
2023-04-21T20:19:52.505Z,17.66
2023-04-21T20:22:20.592Z,17.62
2023-04-21T20:24:48.299Z,17.59
2023-04-21T20:27:16.180Z,17.57
2023-04-21T20:29:44.048Z,17.60
2023-04-21T20:32:12.142Z,17.58
2023-04-21T20:34:40.165Z,17.50
2023-04-21T20:37:07.910Z,17.43
2023-04-21T20:39:35.816Z,17.36
2023-04-21T20:42:12.730Z,17.31
2023-04-21T20:44:43.021Z,17.24
2023-04-21T20:47:10.908Z,17.18
2023-04-21T20:49:39.823Z,17.04
2023-04-21T20:52:08.324Z,16.95
2023-04-21T20:54:38.455Z,16.85
2023-04-21T20:57:07.675Z,16.81
2023-04-21T20:59:35.874Z,16.81
2023-04-21T21:02:04.334Z,16.79
2023-04-21T21:04:32.486Z,16.82
2023-04-21T21:07:01.876Z,16.88
2023-04-21T21:09:31.039Z,16.89
2023-04-21T21:11:58.679Z,16.97
2023-04-21T21:14:26.667Z,16.94
2023-04-21T21:16:55.426Z,16.95
2023-04-21T21:19:23.500Z,16.97
2023-04-21T21:21:51.615Z,16.97
2023-04-21T21:24:19.196Z,16.98
2023-04-21T21:26:47.188Z,16.98
2023-04-21T21:29:15.299Z,16.93
2023-04-21T21:31:43.388Z,16.87
2023-04-21T21:34:11.013Z,16.77
2023-04-21T21:36:38.766Z,16.71
2023-04-21T21:39:08.260Z,16.63
2023-04-21T21:41:37.860Z,16.55
2023-04-21T21:44:06.555Z,16.44
2023-04-21T21:46:34.754Z,16.42
2023-04-21T21:49:02.900Z,16.42
2023-04-21T21:51:31.069Z,16.39
2023-04-21T21:53:58.746Z,16.37
2023-04-21T21:56:26.372Z,16.33
2023-04-21T21:58:54.483Z,16.29
2023-04-21T22:01:21.739Z,16.31
2023-04-21T22:03:49.548Z,16.32
2023-04-21T22:06:17.563Z,16.33
2023-04-21T22:08:45.700Z,16.33
2023-04-21T22:11:13.700Z,16.30
2023-04-21T22:13:41.632Z,16.32
2023-04-21T22:16:09.480Z,16.32
2023-04-21T22:18:37.783Z,16.35
2023-04-21T22:21:05.535Z,16.38
2023-04-21T22:23:33.224Z,16.38
2023-04-21T22:26:04.394Z,16.29
2023-04-21T22:28:32.298Z,16.13
2023-04-21T22:30:59.702Z,16.08
2023-04-21T22:33:27.771Z,16.00
2023-04-21T22:35:55.684Z,15.99
2023-04-21T22:38:23.601Z,15.98
2023-04-21T22:40:51.145Z,15.97
2023-04-21T22:43:19.202Z,15.97
2023-04-21T22:45:46.946Z,15.92
2023-04-21T22:48:14.407Z,15.89
2023-04-21T22:50:44.845Z,15.85
2023-04-21T22:53:16.385Z,15.79
2023-04-21T22:55:44.013Z,15.73
2023-04-21T22:58:12.637Z,15.71
2023-04-21T23:00:41.665Z,15.63
2023-04-21T23:03:09.410Z,15.54
2023-04-21T23:05:37.515Z,15.51
2023-04-21T23:08:05.601Z,15.43
2023-04-21T23:10:33.792Z,15.39
2023-04-21T23:13:02.982Z,15.40
2023-04-21T23:15:32.117Z,15.38
2023-04-21T23:18:00.181Z,15.44
2023-04-21T23:20:27.944Z,15.44
2023-04-21T23:22:55.966Z,15.40
2023-04-21T23:25:23.758Z,15.34
2023-04-21T23:27:51.690Z,15.33
2023-04-21T23:30:19.926Z,15.29
2023-04-21T23:32:47.461Z,15.24
2023-04-21T23:35:15.477Z,15.11
2023-04-21T23:37:43.514Z,15.00
2023-04-21T23:40:13.174Z,15.00
2023-04-21T23:42:40.378Z,15.02
2023-04-21T23:45:10.728Z,15.09
2023-04-21T23:47:41.681Z,15.09
2023-04-21T23:50:11.730Z,15.10
2023-04-21T23:52:42.050Z,15.07
2023-04-21T23:55:12.692Z,15.06
2023-04-21T23:57:40.407Z,15.02
